Time;durP1;ratioP1;P1;durP2;ratioP2;P2;SDS_P1;SDS_P2;PMS_P1;PMS_P2;Temp;Humidity;BMP_temperature;BMP_pressure;BME280_temperature;BME280_humidity;BME280_pressure;Samples;Min_cycle;Max_cycle;Signal;HPM_P1;HPM_P2
2023/03/20 00:01:20;;;;;;;1999.90;999.90;;;9.00;99.90;;;;;;5035956;28;20045;-77
2023/03/20 00:03:46;;;;;;;1999.90;999.90;;;9.00;99.90;;;;;;5036013;28;20617;-75
2023/03/20 00:06:17;;;;;;;1999.90;999.90;;;9.00;99.90;;;;;;5035993;28;20032;-75
2023/03/20 00:08:46;;;;;;;1999.90;999.90;;;9.00;99.90;;;;;;5035798;28;20030;-76
2023/03/20 00:11:33;;;;;;;1999.90;999.90;;;9.00;99.90;;;;;;5035784;28;20129;-75
2023/03/20 00:14:05;;;;;;;1999.90;999.90;;;9.00;99.90;;;;;;5035094;28;20037;-76
2023/03/20 00:16:36;;;;;;;1999.90;999.90;;;9.00;99.90;;;;;;5035928;28;20502;-75
2023/03/20 00:19:05;;;;;;;1999.90;999.90;;;9.00;99.90;;;;;;5035520;28;20092;-76
2023/03/20 00:21:30;;;;;;;1999.90;999.90;;;8.90;99.90;;;;;;5035689;28;20030;-76
2023/03/20 00:23:56;;;;;;;1999.90;999.90;;;9.00;99.90;;;;;;5033761;28;20038;-76
2023/03/20 00:26:27;;;;;;;1999.90;999.90;;;8.90;99.90;;;;;;5034200;28;20030;-76
2023/03/20 00:28:52;;;;;;;1999.90;999.90;;;8.90;99.90;;;;;;5035611;28;20065;-75
2023/03/20 00:31:24;;;;;;;1999.90;999.90;;;9.00;99.90;;;;;;5035525;28;20073;-76
2023/03/20 00:33:51;;;;;;;1999.90;999.90;;;8.90;99.90;;;;;;5035455;28;20040;-75
2023/03/20 00:36:16;;;;;;;1999.90;999.90;;;8.90;99.90;;;;;;5033943;28;20034;-75
2023/03/20 00:38:42;;;;;;;1999.90;999.90;;;9.00;99.90;;;;;;5035326;28;20491;-75
2023/03/20 00:41:30;;;;;;;1999.90;999.90;;;8.90;99.90;;;;;;5033925;28;20543;-75
2023/03/20 00:44:12;;;;;;;1999.90;999.90;;;9.00;99.90;;;;;;5032902;28;20041;-75
2023/03/20 00:46:38;;;;;;;1999.90;999.90;;;8.90;99.90;;;;;;5035424;28;20084;-75
2023/03/20 00:49:05;;;;;;;1999.90;999.90;;;9.00;99.90;;;;;;5035118;28;20038;-75
2023/03/20 00:51:30;;;;;;;1999.90;999.90;;;8.90;99.90;;;;;;5035284;28;20034;-76
2023/03/20 00:53:56;;;;;;;1999.90;999.90;;;8.90;99.90;;;;;;5034837;28;20492;-76
2023/03/20 00:56:34;;;;;;;1999.90;999.90;;;9.00;99.90;;;;;;5035337;28;20026;-75
2023/03/20 00:59:02;;;;;;;1999.90;999.90;;;8.90;99.90;;;;;;5034710;28;20030;-75
2023/03/20 01:01:29;;;;;;;1999.90;999.90;;;8.90;99.90;;;;;;5035117;28;20033;-75
2023/03/20 01:03:55;;;;;;;1999.90;999.90;;;8.90;99.90;;;;;;5033377;28;20045;-75
2023/03/20 01:06:20;;;;;;;1999.90;999.90;;;8.80;99.90;;;;;;5035098;28;20539;-75
2023/03/20 01:08:47;;;;;;;1999.90;999.90;;;8.90;99.90;;;;;;5034967;28;20034;-75
2023/03/20 01:11:15;;;;;;;1999.90;999.90;;;8.80;99.90;;;;;;5034837;28;20057;-76
2023/03/20 01:13:41;;;;;;;1999.90;999.90;;;8.80;99.90;;;;;;5033154;28;20041;-76
2023/03/20 01:16:17;;;;;;;1999.90;999.90;;;8.80;99.90;;;;;;5034801;28;20022;-76
2023/03/20 01:18:43;;;;;;;1999.90;999.90;;;8.80;99.90;;;;;;5034981;28;20069;-75
2023/03/20 01:21:09;;;;;;;1999.90;999.90;;;8.80;99.90;;;;;;5034884;28;20147;-76
2023/03/20 01:23:34;;;;;;;1999.90;999.90;;;8.70;99.90;;;;;;5035006;28;20030;-76
2023/03/20 01:26:00;;;;;;;1999.90;999.90;;;8.80;99.90;;;;;;5032982;28;20050;-76
2023/03/20 01:28:27;;;;;;;1999.90;999.90;;;8.80;99.90;;;;;;5034521;28;20496;-76
2023/03/20 01:30:52;;;;;;;1999.90;999.90;;;8.80;99.90;;;;;;5033045;28;20508;-75
2023/03/20 01:33:25;;;;;;;1999.90;999.90;;;8.70;99.90;;;;;;5033130;28;20045;-76
2023/03/20 01:35:51;;;;;;;1999.90;999.90;;;8.80;99.90;;;;;;5034250;28;20068;-75
2023/03/20 01:38:20;;;;;;;1999.90;999.90;;;8.70;99.90;;;;;;5032952;28;20081;-75
2023/03/20 01:40:58;;;;;;;1999.90;999.90;;;8.70;99.90;;;;;;5034398;28;20041;-75
2023/03/20 01:43:26;;;;;;;1999.90;999.90;;;8.70;99.90;;;;;;5034737;28;20037;-76
2023/03/20 01:46:10;;;;;;;1999.90;999.90;;;8.80;99.90;;;;;;5034064;28;20030;-76
2023/03/20 01:49:00;;;;;;;1999.90;999.90;;;8.80;99.90;;;;;;5034658;28;20836;-76
2023/03/20 01:51:35;;;;;;;1999.90;999.90;;;8.80;99.90;;;;;;5034700;28;20026;-76
2023/03/20 01:54:17;;;;;;;1999.90;999.90;;;8.80;99.90;;;;;;5034181;28;20112;-75
2023/03/20 01:56:53;;;;;;;1999.90;999.90;;;8.80;99.90;;;;;;5037112;28;20507;-76
2023/03/20 01:59:24;;;;;;;1999.90;999.90;;;8.80;99.90;;;;;;5060992;22;20054;-77
2023/03/20 02:01:50;;;;;;;1999.90;999.90;;;8.80;99.90;;;;;;5038172;28;20126;-77
2023/03/20 02:04:17;;;;;;;1999.90;999.90;;;8.80;99.90;;;;;;5037782;28;20501;-77
2023/03/20 02:06:44;;;;;;;1999.90;999.90;;;8.80;99.90;;;;;;5036457;28;20045;-77
2023/03/20 02:09:10;;;;;;;1999.90;999.90;;;8.80;99.90;;;;;;5036173;28;20553;-77
2023/03/20 02:11:39;;;;;;;1999.90;999.90;;;8.80;99.90;;;;;;5037590;28;20092;-77
2023/03/20 02:14:05;;;;;;;1999.90;999.90;;;8.80;99.90;;;;;;5035254;28;20206;-77
2023/03/20 02:16:31;;;;;;;1999.90;999.90;;;8.80;99.90;;;;;;5037723;28;20041;-77
2023/03/20 02:18:57;;;;;;;1999.90;999.90;;;8.80;99.90;;;;;;5037458;28;20387;-77
2023/03/20 02:21:57;;;;;;;1999.90;999.90;;;8.80;99.90;;;;;;5036154;28;20038;-79
2023/03/20 02:24:28;;;;;;;1999.90;999.90;;;8.80;99.90;;;;;;5037241;28;20077;-77
2023/03/20 02:27:24;;;;;;;1999.90;999.90;;;8.80;99.90;;;;;;5036187;28;20036;-77
2023/03/20 02:30:18;;;;;;;1999.90;999.90;;;8.80;99.90;;;;;;5036558;28;20092;-77
2023/03/20 02:33:15;;;;;;;1999.90;999.90;;;8.80;99.90;;;;;;5035596;28;20137;-77
2023/03/20 02:35:59;;;;;;;1999.90;999.90;;;8.80;99.90;;;;;;5035853;28;20494;-77
2023/03/20 02:38:43;;;;;;;1999.90;999.90;;;8.80;99.90;;;;;;5037655;28;20336;-78
2023/03/20 02:41:29;;;;;;;1999.90;999.90;;;8.90;99.90;;;;;;5035958;28;20197;-78
2023/03/20 02:44:28;;;;;;;1999.90;999.90;;;8.80;99.90;;;;;;5035418;28;20088;-77
2023/03/20 02:47:10;;;;;;;1999.90;999.90;;;8.90;99.90;;;;;;5035348;28;20038;-77
2023/03/20 02:49:48;;;;;;;1999.90;999.90;;;8.80;99.90;;;;;;5039637;28;20034;-77
2023/03/20 02:52:26;;;;;;;1999.90;999.90;;;8.80;99.90;;;;;;5044596;28;20088;-79
2023/03/20 02:55:00;;;;;;;1999.90;999.90;;;8.80;99.90;;;;;;5036256;28;20137;-79
2023/03/20 02:57:29;;;;;;;1999.90;999.90;;;8.80;99.90;;;;;;5036562;28;20038;-79
2023/03/20 03:00:00;;;;;;;1999.90;999.90;;;8.80;99.90;;;;;;5035788;28;20037;-79
2023/03/20 03:02:34;;;;;;;1999.90;999.90;;;8.80;99.90;;;;;;5038136;28;20554;-79
2023/03/20 03:05:13;;;;;;;1999.90;999.90;;;8.80;99.90;;;;;;5036440;28;20117;-79
2023/03/20 03:07:44;;;;;;;1999.90;999.90;;;8.80;99.90;;;;;;5037156;28;20033;-79
2023/03/20 03:10:21;;;;;;;1999.90;999.90;;;8.80;99.90;;;;;;5037485;28;20490;-79
2023/03/20 03:12:50;;;;;;;1999.90;999.90;;;8.80;99.90;;;;;;5037193;28;20038;-79
2023/03/20 03:15:25;;;;;;;1999.90;999.90;;;8.80;99.90;;;;;;5037164;28;20555;-79
2023/03/20 03:17:52;;;;;;;1999.90;999.90;;;8.80;99.90;;;;;;5037081;28;20045;-77
2023/03/20 03:20:35;;;;;;;1999.90;999.90;;;8.90;99.90;;;;;;5037136;28;20026;-77
2023/03/20 03:23:01;;;;;;;1999.90;999.90;;;8.90;99.90;;;;;;5037324;28;20428;-77
2023/03/20 03:25:31;;;;;;;1999.90;999.90;;;8.90;99.90;;;;;;5034921;28;20524;-77
2023/03/20 03:28:09;;;;;;;1999.90;999.90;;;8.90;99.90;;;;;;5035203;28;20880;-77
2023/03/20 03:30:37;;;;;;;1999.90;999.90;;;8.90;99.90;;;;;;5036652;28;20503;-77
2023/03/20 03:33:21;;;;;;;1999.90;999.90;;;9.00;99.90;;;;;;5036439;28;20068;-77
2023/03/20 03:35:48;;;;;;;1999.90;999.90;;;8.90;99.90;;;;;;5034721;28;20418;-77
2023/03/20 03:38:36;;;;;;;1999.90;999.90;;;8.90;99.90;;;;;;5034958;28;20033;-77
2023/03/20 03:41:11;;;;;;;1999.90;999.90;;;8.90;99.90;;;;;;5036660;28;20037;-77
2023/03/20 03:43:47;;;;;;;1999.90;999.90;;;8.90;99.90;;;;;;5036456;28;20069;-77
2023/03/20 03:46:21;;;;;;;1999.90;999.90;;;8.90;99.90;;;;;;5034886;28;20113;-77
2023/03/20 03:48:51;;;;;;;1999.90;999.90;;;8.90;99.90;;;;;;5035160;28;20064;-77
2023/03/20 03:51:21;;;;;;;1999.90;999.90;;;8.90;99.90;;;;;;5036141;28;20176;-77
2023/03/20 03:53:54;;;;;;;1999.90;999.90;;;8.90;99.90;;;;;;5034646;28;20041;-77
2023/03/20 03:56:24;;;;;;;1999.90;999.90;;;8.90;99.90;;;;;;5036071;28;20045;-77
2023/03/20 03:58:58;;;;;;;1999.90;999.90;;;8.90;99.90;;;;;;5035376;28;20033;-77
2023/03/20 04:01:26;;;;;;;1999.90;999.90;;;8.90;99.90;;;;;;5035037;28;20459;-77
2023/03/20 04:03:59;;;;;;;1999.90;999.90;;;8.90;99.90;;;;;;5034441;28;20036;-77
2023/03/20 04:06:26;;;;;;;1999.90;999.90;;;8.90;99.90;;;;;;5035992;28;20119;-77
2023/03/20 04:08:52;;;;;;;1999.90;999.90;;;8.80;99.90;;;;;;5034427;28;20044;-77
2023/03/20 04:11:21;;;;;;;1999.90;999.90;;;8.80;99.90;;;;;;5035763;28;20040;-77
2023/03/20 04:13:48;;;;;;;1999.90;999.90;;;8.80;99.90;;;;;;5035741;28;20042;-77
2023/03/20 04:16:15;;;;;;;1999.90;999.90;;;8.80;99.90;;;;;;5035489;28;20537;-77
2023/03/20 04:18:41;;;;;;;1999.90;999.90;;;8.70;99.90;;;;;;5036607;28;20034;-78
2023/03/20 04:21:07;;;;;;;1999.90;999.90;;;8.70;99.90;;;;;;5036146;28;20038;-78
2023/03/20 04:23:33;;;;;;;1999.90;999.90;;;8.70;99.90;;;;;;5034940;28;20519;-78
2023/03/20 04:25:59;;;;;;;1999.90;999.90;;;8.70;99.90;;;;;;5034378;28;20034;-78
2023/03/20 04:28:24;;;;;;;1999.90;999.90;;;8.70;99.90;;;;;;5035006;28;20463;-77
2023/03/20 04:30:54;;;;;;;1999.90;999.90;;;8.60;99.90;;;;;;5036322;28;20435;-78
2023/03/20 04:33:20;;;;;;;1999.90;999.90;;;8.60;99.90;;;;;;5034951;28;20076;-78
2023/03/20 04:35:46;;;;;;;1999.90;999.90;;;8.60;99.90;;;;;;5036186;28;20155;-78
2023/03/20 04:38:12;;;;;;;1999.90;999.90;;;8.50;99.90;;;;;;5036608;28;20036;-78
2023/03/20 04:40:37;;;;;;;1999.90;999.90;;;8.60;99.90;;;;;;5036409;28;20037;-78
2023/03/20 04:43:03;;;;;;;1999.90;999.90;;;8.60;99.90;;;;;;5035929;28;20478;-78
2023/03/20 04:45:28;;;;;;;1999.90;999.90;;;8.60;99.90;;;;;;5036680;28;20452;-78
2023/03/20 04:47:54;;;;;;;1999.90;999.90;;;8.60;99.90;;;;;;5035485;28;20044;-78
2023/03/20 04:50:20;;;;;;;1999.90;999.90;;;8.60;99.90;;;;;;5035102;28;20037;-78
2023/03/20 04:52:45;;;;;;;1999.90;999.90;;;8.60;99.90;;;;;;5045225;28;20081;-78
2023/03/20 04:55:11;;;;;;;1999.90;999.90;;;8.60;99.90;;;;;;5050352;28;20052;-79
2023/03/20 04:57:36;;;;;;;1999.90;999.90;;;8.60;99.90;;;;;;5038876;28;20380;-80
2023/03/20 05:00:03;;;;;;;1999.90;999.90;;;8.60;99.90;;;;;;5037650;28;20060;-78
2023/03/20 05:02:29;;;;;;;1999.90;999.90;;;8.60;99.90;;;;;;5037749;28;20038;-79
2023/03/20 05:04:55;;;;;;;1999.90;999.90;;;8.70;99.90;;;;;;5038122;28;20037;-78
2023/03/20 05:07:20;;;;;;;1999.90;999.90;;;8.60;99.90;;;;;;5035518;28;20117;-79
2023/03/20 05:09:46;;;;;;;1999.90;999.90;;;8.70;99.90;;;;;;5034755;28;20044;-79
2023/03/20 05:12:12;;;;;;;1999.90;999.90;;;8.70;99.90;;;;;;5036825;28;20034;-79
2023/03/20 05:14:37;;;;;;;1999.90;999.90;;;8.70;99.90;;;;;;5036637;28;20121;-78
2023/03/20 05:17:03;;;;;;;1999.90;999.90;;;8.80;99.90;;;;;;5035915;28;20034;-79
2023/03/20 05:19:29;;;;;;;1999.90;999.90;;;8.80;99.90;;;;;;5036084;28;20487;-78
2023/03/20 05:21:54;;;;;;;1999.90;999.90;;;8.80;99.90;;;;;;5035418;28;20030;-79
2023/03/20 05:24:20;;;;;;;1999.90;999.90;;;8.80;99.90;;;;;;5035047;28;20052;-78
2023/03/20 05:26:46;;;;;;;1999.90;999.90;;;8.80;99.90;;;;;;5036302;28;20538;-79
2023/03/20 05:29:11;;;;;;;1999.90;999.90;;;8.80;99.90;;;;;;5035751;28;20034;-79
2023/03/20 05:31:37;;;;;;;1999.90;999.90;;;8.90;99.90;;;;;;5033833;28;20034;-79
2023/03/20 05:34:02;;;;;;;1999.90;999.90;;;8.90;99.90;;;;;;5035454;28;20049;-79
2023/03/20 05:36:28;;;;;;;1999.90;999.90;;;8.90;99.90;;;;;;5034001;28;20030;-79
2023/03/20 05:38:53;;;;;;;1999.90;999.90;;;8.90;99.90;;;;;;5035232;28;20036;-79
2023/03/20 05:41:19;;;;;;;1999.90;999.90;;;9.00;99.90;;;;;;5035915;28;20125;-79
2023/03/20 05:43:45;;;;;;;1999.90;999.90;;;9.00;99.90;;;;;;5035788;28;20046;-79
2023/03/20 05:46:10;;;;;;;1999.90;999.90;;;9.00;99.90;;;;;;5034498;28;20034;-79
2023/03/20 05:48:36;;;;;;;1999.90;999.90;;;9.00;99.90;;;;;;5036331;28;20034;-79
2023/03/20 05:51:02;;;;;;;1999.90;999.90;;;9.00;99.90;;;;;;5039283;28;20030;-81
2023/03/20 05:53:27;;;;;;;1999.90;999.90;;;9.00;99.90;;;;;;5038595;28;20056;-80
2023/03/20 05:55:53;;;;;;;1999.90;999.90;;;9.00;99.90;;;;;;5038532;28;20153;-80
2023/03/20 05:58:18;;;;;;;1999.90;999.90;;;9.00;99.90;;;;;;5036301;28;20053;-79
2023/03/20 06:00:44;;;;;;;1999.90;999.90;;;9.00;99.90;;;;;;5037884;28;20042;-79
2023/03/20 06:03:10;;;;;;;1999.90;999.90;;;9.10;99.90;;;;;;5036316;28;20036;-79
2023/03/20 06:05:36;;;;;;;1999.90;999.90;;;9.10;99.90;;;;;;5035528;28;20036;-80
2023/03/20 06:08:02;;;;;;;1999.90;999.90;;;9.10;99.90;;;;;;5038456;28;20030;-79
2023/03/20 06:10:29;;;;;;;1999.90;999.90;;;9.10;99.90;;;;;;5035197;28;20034;-80
2023/03/20 06:12:55;;;;;;;1999.90;999.90;;;9.20;99.90;;;;;;5033344;28;20042;-80
2023/03/20 06:15:21;;;;;;;1999.90;999.90;;;9.20;99.90;;;;;;5033977;28;20534;-80
2023/03/20 06:18:02;;;;;;;1999.90;999.90;;;9.20;99.90;;;;;;5035156;28;20033;-80
2023/03/20 06:20:28;;;;;;;1999.90;999.90;;;9.20;99.90;;;;;;5035608;28;20030;-80
2023/03/20 06:22:56;;;;;;;1999.90;999.90;;;9.20;99.90;;;;;;5035626;28;20443;-80
2023/03/20 06:25:22;;;;;;;1999.90;999.90;;;9.30;99.90;;;;;;5034760;28;20061;-80
2023/03/20 06:27:48;;;;;;;1999.90;999.90;;;9.30;99.90;;;;;;5036043;28;20090;-78
2023/03/20 06:30:14;;;;;;;1999.90;999.90;;;9.30;99.90;;;;;;5037406;28;20038;-79
2023/03/20 06:32:40;;;;;;;1999.90;999.90;;;9.30;99.90;;;;;;5038657;28;20482;-80
2023/03/20 06:35:06;;;;;;;1999.90;999.90;;;9.30;99.90;;;;;;5037931;28;20038;-81
2023/03/20 06:37:32;;;;;;;1999.90;999.90;;;9.30;99.90;;;;;;5037124;28;20391;-80
2023/03/20 06:39:58;;;;;;;1999.90;999.90;;;9.30;99.90;;;;;;5037533;28;20034;-80
2023/03/20 06:42:24;;;;;;;1999.90;999.90;;;9.40;99.90;;;;;;5037551;28;20488;-80
2023/03/20 06:44:49;;;;;;;1999.90;999.90;;;9.40;99.90;;;;;;5041991;28;20029;-80
2023/03/20 06:47:15;;;;;;;1999.90;999.90;;;9.40;99.90;;;;;;5040427;28;20092;-80
2023/03/20 06:49:41;;;;;;;1999.90;999.90;;;9.40;99.90;;;;;;5040825;28;20044;-80
2023/03/20 06:52:09;;;;;;;1999.90;999.90;;;9.50;99.90;;;;;;5047054;28;20042;-80
2023/03/20 06:54:34;;;;;;;1999.90;999.90;;;9.60;99.90;;;;;;5048179;28;20039;-80
2023/03/20 06:57:00;;;;;;;1999.90;999.90;;;9.70;99.90;;;;;;5058239;28;20036;-80
2023/03/20 06:59:26;;;;;;;1999.90;999.90;;;9.90;99.90;;;;;;5045511;28;20139;-80
2023/03/20 07:01:51;;;;;;;1999.90;999.90;;;10.10;99.90;;;;;;5037686;28;20038;-80
2023/03/20 07:04:17;;;;;;;1999.90;999.90;;;10.30;99.90;;;;;;5038509;28;20120;-80
2023/03/20 07:06:43;;;;;;;1999.90;999.90;;;10.40;99.90;;;;;;5038483;28;20113;-80
2023/03/20 07:09:08;;;;;;;1999.90;999.90;;;10.40;99.90;;;;;;5037494;28;20772;-80
2023/03/20 07:11:34;;;;;;;1999.90;999.90;;;10.30;99.90;;;;;;5042092;28;20065;-80
2023/03/20 07:14:00;;;;;;;1999.90;999.90;;;10.20;99.90;;;;;;5042018;28;20046;-80
2023/03/20 07:16:26;;;;;;;1999.90;999.90;;;10.10;99.90;;;;;;5041700;28;20041;-80
2023/03/20 07:18:52;;;;;;;1999.90;999.90;;;10.00;99.90;;;;;;5043069;22;20038;-79
2023/03/20 07:21:21;;;;;;;1999.90;999.90;;;9.90;99.90;;;;;;5034330;28;20558;-80
2023/03/20 07:23:47;;;;;;;1999.90;999.90;;;9.90;99.90;;;;;;5019820;28;20034;-80
2023/03/20 07:26:12;;;;;;;1999.90;999.90;;;9.90;99.90;;;;;;5020720;28;20125;-80
2023/03/20 07:28:38;;;;;;;1999.90;999.90;;;9.90;99.90;;;;;;5034172;28;20541;-80
2023/03/20 07:31:04;;;;;;;1999.90;999.90;;;10.00;99.90;;;;;;5044239;22;20042;-76
2023/03/20 07:33:30;;;;;;;1999.90;999.90;;;10.10;99.90;;;;;;5032553;28;20104;-76
2023/03/20 07:35:56;;;;;;;1999.90;999.90;;;10.20;99.90;;;;;;5035911;28;20438;-76
2023/03/20 07:38:22;;;;;;;1999.90;999.90;;;10.30;99.90;;;;;;5034940;28;20038;-76
2023/03/20 07:40:48;;;;;;;1999.90;999.90;;;10.40;99.90;;;;;;5036154;28;20038;-76
2023/03/20 07:43:15;;;;;;;1999.90;999.90;;;10.40;99.90;;;;;;5034645;28;20049;-76
2023/03/20 07:45:41;;;;;;;1999.90;999.90;;;10.40;99.90;;;;;;5036160;28;20549;-76
2023/03/20 07:48:06;;;;;;;1999.90;999.90;;;10.30;99.90;;;;;;5036486;28;20044;-76
2023/03/20 07:50:32;;;;;;;1999.90;999.90;;;10.40;99.90;;;;;;5036363;28;20034;-76
2023/03/20 07:52:58;;;;;;;1999.90;999.90;;;10.50;99.90;;;;;;5035649;28;20117;-76
2023/03/20 07:55:23;;;;;;;1999.90;999.90;;;10.70;99.90;;;;;;5035957;28;20414;-76
2023/03/20 07:57:49;;;;;;;1999.90;999.90;;;10.90;99.90;;;;;;5036220;28;20038;-76
2023/03/20 08:00:16;;;;;;;1999.90;999.90;;;11.20;99.90;;;;;;5036175;28;20034;-76
2023/03/20 08:02:41;;;;;;;1999.90;999.90;;;11.10;99.90;;;;;;5035672;28;20034;-76
2023/03/20 08:05:08;;;;;;;1999.90;999.90;;;11.10;99.90;;;;;;5035860;28;20030;-76
2023/03/20 08:07:34;;;;;;;1999.90;999.90;;;11.20;99.90;;;;;;5036032;28;20088;-76
2023/03/20 08:10:00;;;;;;;1999.90;999.90;;;11.20;99.90;;;;;;5035959;28;20041;-76
2023/03/20 08:12:25;;;;;;;1999.90;999.90;;;10.90;99.90;;;;;;5034308;28;20036;-77
2023/03/20 08:14:51;;;;;;;1999.90;999.90;;;10.80;99.90;;;;;;5035398;28;20049;-76
2023/03/20 08:17:16;;;;;;;1999.90;999.90;;;10.70;99.90;;;;;;5035504;28;20072;-76
2023/03/20 08:19:42;;;;;;;1999.90;999.90;;;10.60;99.90;;;;;;5035641;28;20108;-76
2023/03/20 08:22:08;;;;;;;1999.90;999.90;;;10.50;99.90;;;;;;5034959;28;20033;-76
2023/03/20 08:24:33;;;;;;;1999.90;999.90;;;10.50;99.90;;;;;;5035589;28;20750;-76
2023/03/20 08:26:59;;;;;;;1999.90;999.90;;;10.60;99.90;;;;;;5035528;28;20026;-76
2023/03/20 08:29:25;;;;;;;1999.90;999.90;;;10.60;99.90;;;;;;5035667;28;20038;-76
2023/03/20 08:31:50;;;;;;;1999.90;999.90;;;10.60;99.90;;;;;;5035039;28;20041;-76
2023/03/20 08:34:16;;;;;;;1999.90;999.90;;;10.70;99.90;;;;;;5035335;28;20034;-76
2023/03/20 08:36:42;;;;;;;1999.90;999.90;;;10.70;99.90;;;;;;5035446;28;20041;-76
2023/03/20 08:39:08;;;;;;;1999.90;999.90;;;10.80;99.90;;;;;;5035264;28;20197;-77
2023/03/20 08:41:37;;;;;;;1999.90;999.90;;;11.10;99.90;;;;;;5035389;28;20506;-76
2023/03/20 08:44:04;;;;;;;1999.90;999.90;;;11.30;99.90;;;;;;5033615;28;20064;-76
2023/03/20 08:46:29;;;;;;;1999.90;999.90;;;11.60;99.90;;;;;;5033969;28;20034;-76
2023/03/20 08:48:55;;;;;;;1999.90;999.90;;;11.90;99.90;;;;;;5035332;28;20491;-76
2023/03/20 08:51:21;;;;;;;1999.90;999.90;;;12.10;99.90;;;;;;5034905;28;20531;-76
2023/03/20 08:53:46;;;;;;;1999.90;999.90;;;12.40;99.90;;;;;;5035143;28;20038;-76
2023/03/20 08:56:12;;;;;;;1999.90;999.90;;;12.80;99.90;;;;;;5035215;28;20030;-76
2023/03/20 08:58:38;;;;;;;1999.90;999.90;;;13.00;99.90;;;;;;5035240;28;20049;-76
2023/03/20 09:01:07;;;;;;;1999.90;999.90;;;13.10;99.90;;;;;;5035081;28;20105;-76
2023/03/20 09:03:34;;;;;;;1999.90;999.90;;;13.10;99.90;;;;;;5035025;28;20073;-76
2023/03/20 09:05:59;;;;;;;1999.90;999.90;;;13.00;99.90;;;;;;5034170;28;20030;-76
2023/03/20 09:08:25;;;;;;;1999.90;999.90;;;12.90;99.90;;;;;;5033467;28;20042;-76
2023/03/20 09:10:50;;;;;;;1999.90;999.90;;;12.80;99.90;;;;;;5034763;28;20034;-76
2023/03/20 09:13:16;;;;;;;1999.90;999.90;;;12.60;99.90;;;;;;5034765;28;20057;-76
2023/03/20 09:15:42;;;;;;;1999.90;999.90;;;12.50;99.90;;;;;;5034812;28;20506;-76
2023/03/20 09:18:08;;;;;;;1999.90;999.90;;;12.50;99.90;;;;;;5034789;28;20038;-76
2023/03/20 09:20:33;;;;;;;1999.90;999.90;;;12.40;99.90;;;;;;5034845;28;20033;-76
2023/03/20 09:22:59;;;;;;;1999.90;999.90;;;12.40;99.90;;;;;;5034826;28;20044;-76
2023/03/20 09:25:25;;;;;;;1999.90;999.90;;;12.40;99.90;;;;;;5034747;28;20088;-76
2023/03/20 09:27:54;;;;;;;1999.90;999.90;;;12.30;99.90;;;;;;5033376;28;20073;-76
2023/03/20 09:30:20;;;;;;;1999.90;999.90;;;12.20;99.90;;;;;;5034726;28;20046;-76
2023/03/20 09:32:45;;;;;;;1999.90;999.90;;;12.20;99.90;;;;;;5034123;28;20038;-76
2023/03/20 09:35:11;;;;;;;1999.90;999.90;;;12.20;99.90;;;;;;5034304;28;20046;-77
2023/03/20 09:37:37;;;;;;;1999.90;999.90;;;12.30;99.90;;;;;;5033101;28;20044;-76
2023/03/20 09:40:04;;;;;;;1999.90;999.90;;;12.30;99.90;;;;;;5034378;28;20108;-76
2023/03/20 09:42:44;;;;;;;1999.90;999.90;;;12.20;99.90;;;;;;5034445;28;20030;-76
2023/03/20 09:45:26;;;;;;;1999.90;999.90;;;12.20;99.90;;;;;;5034387;28;20517;-76
2023/03/20 09:47:58;;;;;;;1999.90;999.90;;;12.10;99.90;;;;;;5034766;28;20038;-76
2023/03/20 09:50:34;;;;;;;1999.90;999.90;;;12.00;99.90;;;;;;5034583;28;20054;-76
2023/03/20 09:53:28;;;;;;;1999.90;999.90;;;12.00;99.90;;;;;;5034492;28;20034;-76
2023/03/20 09:55:55;;;;;;;1999.90;999.90;;;12.10;99.90;;;;;;5034106;28;20093;-76
2023/03/20 09:58:25;;;;;;;1999.90;999.90;;;12.10;99.90;;;;;;5034508;28;20042;-76
2023/03/20 10:00:50;;;;;;;1999.90;999.90;;;12.40;99.90;;;;;;5032884;28;20026;-76
2023/03/20 10:03:46;;;;;;;1999.90;999.90;;;12.80;99.90;;;;;;5034181;28;20041;-76
2023/03/20 10:06:15;;;;;;;1999.90;999.90;;;13.00;99.90;;;;;;5032754;28;20030;-76
2023/03/20 10:08:41;;;;;;;1999.90;999.90;;;13.10;99.90;;;;;;5034268;28;20484;-76
2023/03/20 10:11:14;;;;;;;1999.90;999.90;;;13.00;99.90;;;;;;5033996;28;20026;-76
2023/03/20 10:14:05;;;;;;;1999.90;999.90;;;12.90;99.90;;;;;;5033910;28;20430;-76
2023/03/20 10:16:49;;;;;;;1999.90;999.90;;;12.80;99.90;;;;;;5032835;28;20041;-76
2023/03/20 10:19:20;;;;;;;1999.90;999.90;;;12.70;99.90;;;;;;5037529;28;20492;-76
2023/03/20 10:21:56;;;;;;;1999.90;999.90;;;12.60;99.90;;;;;;5037353;28;20037;-76
2023/03/20 10:24:26;;;;;;;1999.90;999.90;;;12.40;99.90;;;;;;5037072;28;20042;-76
2023/03/20 10:26:53;;;;;;;1999.90;999.90;;;12.20;99.90;;;;;;5036306;28;20112;-76
2023/03/20 10:29:43;;;;;;;1999.90;999.90;;;12.00;99.90;;;;;;5037415;28;20108;-76
2023/03/20 10:32:27;;;;;;;1999.90;999.90;;;11.80;99.90;;;;;;5037138;28;20037;-76
2023/03/20 10:35:10;;;;;;;1999.90;999.90;;;11.60;99.90;;;;;;5037239;28;20562;-76
2023/03/20 10:37:58;;;;;;;1999.90;999.90;;;11.60;99.90;;;;;;5037503;28;20065;-76
2023/03/20 10:40:30;;;;;;;1999.90;999.90;;;11.70;99.90;;;;;;5037325;28;20129;-75
2023/03/20 10:43:02;;;;;;;1999.90;999.90;;;11.80;99.90;;;;;;5036821;28;20488;-75
2023/03/20 10:45:29;;;;;;;1999.90;999.90;;;12.00;99.90;;;;;;5038048;28;20068;-75
2023/03/20 10:47:56;;;;;;;1999.90;999.90;;;12.30;99.90;;;;;;5037012;28;20076;-75
2023/03/20 10:50:38;;;;;;;1999.90;999.90;;;12.40;99.90;;;;;;5037081;28;20073;-75
2023/03/20 10:53:05;;;;;;;1999.90;999.90;;;12.70;99.90;;;;;;5036930;28;20089;-76
2023/03/20 10:55:38;;;;;;;1999.90;999.90;;;12.60;99.90;;;;;;5036843;28;20064;-76
2023/03/20 10:58:26;;;;;;;1999.90;999.90;;;12.30;99.90;;;;;;5036988;28;20038;-76
2023/03/20 11:00:54;;;;;;;1999.90;999.90;;;12.20;99.90;;;;;;5036771;28;20045;-76
2023/03/20 11:03:25;;;;;;;1999.90;999.90;;;12.10;99.90;;;;;;5035264;28;20042;-76
2023/03/20 11:06:20;;;;;;;1999.90;999.90;;;12.00;99.90;;;;;;5036797;28;20545;-76
2023/03/20 11:08:51;;;;;;;1999.90;999.90;;;11.90;99.90;;;;;;5032964;28;20054;-76
2023/03/20 11:11:29;;;;;;;1999.90;999.90;;;12.10;99.90;;;;;;5036745;28;20026;-76
2023/03/20 11:13:54;;;;;;;1999.90;999.90;;;12.30;99.90;;;;;;5034957;28;20041;-76
2023/03/20 11:16:32;;;;;;;1999.90;999.90;;;12.70;99.90;;;;;;5036814;28;20026;-76
2023/03/20 11:19:07;;;;;;;1999.90;999.90;;;13.00;99.90;;;;;;5037007;28;20471;-76
2023/03/20 11:21:43;;;;;;;1999.90;999.90;;;13.30;99.90;;;;;;5036615;28;20157;-76
2023/03/20 11:24:24;;;;;;;1999.90;999.90;;;13.60;99.90;;;;;;5036355;28;20041;-76
2023/03/20 11:26:50;;;;;;;1999.90;999.90;;;13.50;99.90;;;;;;5036842;28;20033;-76
2023/03/20 11:29:29;;;;;;;1999.90;999.90;;;13.40;99.90;;;;;;5036116;28;20191;-76
2023/03/20 11:32:10;;;;;;;1999.90;999.90;;;13.30;99.90;;;;;;5034540;28;20044;-76
2023/03/20 11:34:39;;;;;;;1999.90;999.90;;;13.00;99.90;;;;;;5036278;28;20034;-76
2023/03/20 11:37:18;;;;;;;1999.90;999.90;;;13.20;99.90;;;;;;5036331;28;20026;-76
2023/03/20 11:39:57;;;;;;;1999.90;999.90;;;13.60;99.90;;;;;;5036573;28;20038;-76
2023/03/20 11:42:25;;;;;;;1999.90;999.90;;;13.80;99.90;;;;;;5034641;28;20459;-76
2023/03/20 11:45:03;;;;;;;1999.90;999.90;;;13.80;99.90;;;;;;5036060;28;20376;-76
2023/03/20 11:47:32;;;;;;;1999.90;999.90;;;13.90;99.90;;;;;;5036017;28;20495;-77
2023/03/20 11:50:01;;;;;;;1999.90;999.90;;;13.90;99.90;;;;;;5036216;28;20038;-76
2023/03/20 11:52:33;;;;;;;1999.90;999.90;;;13.90;99.90;;;;;;5035839;28;20030;-76
2023/03/20 11:55:02;;;;;;;1999.90;999.90;;;13.90;99.90;;;;;;5034338;28;20069;-76
2023/03/20 11:57:36;;;;;;;1999.90;999.90;;;14.20;99.90;;;;;;5036100;28;20030;-76
2023/03/20 12:00:24;;;;;;;1999.90;999.90;;;14.30;99.90;;;;;;5035858;28;20109;-76
2023/03/20 12:02:50;;;;;;;1999.90;999.90;;;14.40;99.90;;;;;;5034498;28;20034;-76
2023/03/20 12:05:28;;;;;;;1999.90;999.90;;;15.00;99.90;;;;;;5034306;28;20041;-76
2023/03/20 12:07:59;;;;;;;1999.90;999.90;;;15.20;99.90;;;;;;5034573;28;20036;-76
2023/03/20 12:10:30;;;;;;;1999.90;999.90;;;14.70;99.90;;;;;;5034546;28;20486;-76
2023/03/20 12:13:03;;;;;;;1999.90;999.90;;;14.30;99.90;;;;;;5033986;28;20037;-76
2023/03/20 12:15:38;;;;;;;1999.90;999.90;;;14.20;99.90;;;;;;5034035;28;20038;-76
2023/03/20 12:18:09;;;;;;;1999.90;999.90;;;14.10;99.90;;;;;;5034329;28;20034;-76